sensor_id;sensor_type;location;lat;lon;timestamp;pressure;altitude;pressure_sealevel;temperature;humidity
64354;BME280;50681;53.334;-6.536;2023-09-19T00:02:17;99459.47;;;20.23;100.00
64354;BME280;50681;53.334;-6.536;2023-09-19T00:04:43;99462.88;;;20.05;100.00
64354;BME280;50681;53.334;-6.536;2023-09-19T00:07:08;99458.09;;;19.98;100.00
64354;BME280;50681;53.334;-6.536;2023-09-19T00:09:34;99459.88;;;19.80;100.00
64354;BME280;50681;53.334;-6.536;2023-09-19T00:12:06;99467.47;;;19.94;100.00
64354;BME280;50681;53.334;-6.536;2023-09-19T00:14:34;99466.72;;;19.56;100.00
64354;BME280;50681;53.334;-6.536;2023-09-19T00:17:03;99467.19;;;19.65;100.00
64354;BME280;50681;53.334;-6.536;2023-09-19T00:19:34;99475.06;;;19.70;100.00
64354;BME280;50681;53.334;-6.536;2023-09-19T00:21:59;99457.19;;;19.83;100.00
64354;BME280;50681;53.334;-6.536;2023-09-19T00:24:24;99464.13;;;19.70;100.00
64354;BME280;50681;53.334;-6.536;2023-09-19T00:26:50;99467.31;;;19.79;100.00
64354;BME280;50681;53.334;-6.536;2023-09-19T00:29:15;99463.56;;;19.95;100.00
64354;BME280;50681;53.334;-6.536;2023-09-19T00:31:44;99443.69;;;20.05;100.00
64354;BME280;50681;53.334;-6.536;2023-09-19T00:34:09;99459.91;;;20.36;100.00
64354;BME280;50681;53.334;-6.536;2023-09-19T00:36:39;99456.50;;;19.94;100.00
64354;BME280;50681;53.334;-6.536;2023-09-19T00:39:05;99451.13;;;20.08;100.00
64354;BME280;50681;53.334;-6.536;2023-09-19T00:41:32;99445.72;;;20.19;100.00
64354;BME280;50681;53.334;-6.536;2023-09-19T00:43:57;99437.94;;;20.25;100.00
64354;BME280;50681;53.334;-6.536;2023-09-19T00:46:25;99432.41;;;20.18;100.00
64354;BME280;50681;53.334;-6.536;2023-09-19T00:48:51;99419.06;;;20.12;100.00
64354;BME280;50681;53.334;-6.536;2023-09-19T00:51:16;99427.66;;;20.89;100.00
64354;BME280;50681;53.334;-6.536;2023-09-19T00:53:46;99423.50;;;20.35;100.00
64354;BME280;50681;53.334;-6.536;2023-09-19T00:56:12;99419.88;;;20.20;100.00
64354;BME280;50681;53.334;-6.536;2023-09-19T00:58:39;99408.06;;;20.05;100.00
64354;BME280;50681;53.334;-6.536;2023-09-19T01:01:05;99411.25;;;20.18;100.00
64354;BME280;50681;53.334;-6.536;2023-09-19T01:03:33;99402.81;;;20.49;100.00
64354;BME280;50681;53.334;-6.536;2023-09-19T01:05:59;99399.69;;;20.54;100.00
64354;BME280;50681;53.334;-6.536;2023-09-19T01:08:26;99388.97;;;20.23;100.00
64354;BME280;50681;53.334;-6.536;2023-09-19T01:11:11;99382.47;;;20.61;100.00
64354;BME280;50681;53.334;-6.536;2023-09-19T01:13:54;99384.81;;;20.55;100.00
64354;BME280;50681;53.334;-6.536;2023-09-19T01:29:42;99344.34;;;20.26;100.00
64354;BME280;50681;53.334;-6.536;2023-09-19T01:32:11;99334.25;;;20.45;100.00
64354;BME280;50681;53.334;-6.536;2023-09-19T01:34:55;99319.38;;;20.42;100.00
64354;BME280;50681;53.334;-6.536;2023-09-19T01:37:29;99311.47;;;20.23;100.00
64354;BME280;50681;53.334;-6.536;2023-09-19T01:39:59;99314.56;;;20.21;100.00
64354;BME280;50681;53.334;-6.536;2023-09-19T01:42:42;99300.19;;;20.50;100.00
64354;BME280;50681;53.334;-6.536;2023-09-19T01:45:13;99283.34;;;20.48;100.00
64354;BME280;50681;53.334;-6.536;2023-09-19T01:47:49;99282.56;;;20.51;100.00
64354;BME280;50681;53.334;-6.536;2023-09-19T01:50:22;99261.34;;;20.19;100.00
64354;BME280;50681;53.334;-6.536;2023-09-19T01:52:59;99256.34;;;20.57;100.00
64354;BME280;50681;53.334;-6.536;2023-09-19T01:55:29;99247.63;;;20.19;100.00
64354;BME280;50681;53.334;-6.536;2023-09-19T01:58:07;99246.16;;;20.54;100.00
64354;BME280;50681;53.334;-6.536;2023-09-19T02:00:36;99241.47;;;20.65;100.00
64354;BME280;50681;53.334;-6.536;2023-09-19T02:03:03;99239.06;;;20.31;100.00
64354;BME280;50681;53.334;-6.536;2023-09-19T02:05:28;99240.59;;;20.25;100.00
64354;BME280;50681;53.334;-6.536;2023-09-19T02:07:54;99231.16;;;20.11;100.00
64354;BME280;50681;53.334;-6.536;2023-09-19T02:10:21;99228.69;;;19.88;100.00
64354;BME280;50681;53.334;-6.536;2023-09-19T02:12:47;99226.53;;;20.41;100.00
64354;BME280;50681;53.334;-6.536;2023-09-19T02:15:13;99222.22;;;20.36;100.00
64354;BME280;50681;53.334;-6.536;2023-09-19T02:17:41;99211.22;;;20.18;100.00
64354;BME280;50681;53.334;-6.536;2023-09-19T02:20:08;99206.16;;;20.24;100.00
64354;BME280;50681;53.334;-6.536;2023-09-19T02:22:35;99195.56;;;20.11;100.00
64354;BME280;50681;53.334;-6.536;2023-09-19T02:25:01;99174.03;;;20.17;100.00
64354;BME280;50681;53.334;-6.536;2023-09-19T02:27:30;99165.00;;;20.13;100.00
64354;BME280;50681;53.334;-6.536;2023-09-19T02:29:56;99160.75;;;20.30;100.00
64354;BME280;50681;53.334;-6.536;2023-09-19T02:32:21;99160.34;;;20.28;100.00
64354;BME280;50681;53.334;-6.536;2023-09-19T02:34:48;99155.13;;;19.83;100.00
64354;BME280;50681;53.334;-6.536;2023-09-19T02:37:14;99150.53;;;20.05;100.00
64354;BME280;50681;53.334;-6.536;2023-09-19T02:39:41;99134.53;;;20.80;100.00
64354;BME280;50681;53.334;-6.536;2023-09-19T02:42:07;99133.38;;;20.81;100.00
64354;BME280;50681;53.334;-6.536;2023-09-19T02:44:32;99114.94;;;20.81;100.00
64354;BME280;50681;53.334;-6.536;2023-09-19T02:46:58;99110.16;;;21.18;100.00
64354;BME280;50681;53.334;-6.536;2023-09-19T02:49:24;99096.53;;;20.67;100.00
64354;BME280;50681;53.334;-6.536;2023-09-19T02:51:49;99088.66;;;20.88;100.00
64354;BME280;50681;53.334;-6.536;2023-09-19T02:54:15;99078.13;;;20.06;100.00
64354;BME280;50681;53.334;-6.536;2023-09-19T02:56:44;99067.50;;;19.90;100.00
64354;BME280;50681;53.334;-6.536;2023-09-19T02:59:09;99057.38;;;19.98;100.00
64354;BME280;50681;53.334;-6.536;2023-09-19T03:01:38;99053.84;;;20.08;100.00
64354;BME280;50681;53.334;-6.536;2023-09-19T03:04:04;99036.63;;;20.30;100.00
64354;BME280;50681;53.334;-6.536;2023-09-19T03:06:31;99019.78;;;20.24;100.00
64354;BME280;50681;53.334;-6.536;2023-09-19T03:08:57;99021.38;;;20.18;100.00
64354;BME280;50681;53.334;-6.536;2023-09-19T03:11:24;99001.75;;;20.45;100.00
64354;BME280;50681;53.334;-6.536;2023-09-19T03:13:53;98991.91;;;20.73;100.00
64354;BME280;50681;53.334;-6.536;2023-09-19T03:16:19;98984.53;;;20.37;100.00
64354;BME280;50681;53.334;-6.536;2023-09-19T03:18:48;98968.84;;;20.48;100.00
64354;BME280;50681;53.334;-6.536;2023-09-19T03:21:16;98955.94;;;20.45;100.00
64354;BME280;50681;53.334;-6.536;2023-09-19T03:23:43;98943.00;;;20.42;100.00
64354;BME280;50681;53.334;-6.536;2023-09-19T03:26:11;98918.72;;;20.44;100.00
64354;BME280;50681;53.334;-6.536;2023-09-19T03:28:37;98916.38;;;20.46;100.00
64354;BME280;50681;53.334;-6.536;2023-09-19T03:31:04;98903.34;;;20.72;100.00
64354;BME280;50681;53.334;-6.536;2023-09-19T03:33:30;98895.22;;;20.54;100.00
64354;BME280;50681;53.334;-6.536;2023-09-19T03:36:00;98888.19;;;20.46;100.00
64354;BME280;50681;53.334;-6.536;2023-09-19T03:38:26;98876.47;;;20.38;100.00
64354;BME280;50681;53.334;-6.536;2023-09-19T03:40:53;98867.53;;;20.16;100.00
64354;BME280;50681;53.334;-6.536;2023-09-19T03:43:18;98854.59;;;20.20;100.00
64354;BME280;50681;53.334;-6.536;2023-09-19T03:45:44;98848.91;;;20.78;100.00
64354;BME280;50681;53.334;-6.536;2023-09-19T03:48:12;98838.53;;;20.22;100.00
64354;BME280;50681;53.334;-6.536;2023-09-19T03:50:38;98830.72;;;20.17;100.00
64354;BME280;50681;53.334;-6.536;2023-09-19T03:53:03;98815.53;;;19.90;100.00
64354;BME280;50681;53.334;-6.536;2023-09-19T03:55:29;98813.94;;;20.04;100.00
64354;BME280;50681;53.334;-6.536;2023-09-19T03:57:57;98804.19;;;19.99;100.00
64354;BME280;50681;53.334;-6.536;2023-09-19T04:00:23;98787.25;;;20.22;100.00
64354;BME280;50681;53.334;-6.536;2023-09-19T04:02:52;98778.69;;;20.17;100.00
64354;BME280;50681;53.334;-6.536;2023-09-19T04:05:18;98785.28;;;20.26;100.00
64354;BME280;50681;53.334;-6.536;2023-09-19T04:07:44;98768.03;;;20.33;100.00
64354;BME280;50681;53.334;-6.536;2023-09-19T04:10:09;98773.16;;;20.24;100.00
64354;BME280;50681;53.334;-6.536;2023-09-19T04:12:37;98733.25;;;20.23;100.00
64354;BME280;50681;53.334;-6.536;2023-09-19T04:15:04;98746.94;;;20.90;100.00
64354;BME280;50681;53.334;-6.536;2023-09-19T04:17:29;98755.53;;;20.21;100.00
64354;BME280;50681;53.334;-6.536;2023-09-19T04:19:55;98737.84;;;20.40;100.00
64354;BME280;50681;53.334;-6.536;2023-09-19T04:22:20;98738.34;;;20.21;100.00
64354;BME280;50681;53.334;-6.536;2023-09-19T04:24:45;98722.63;;;20.32;100.00
64354;BME280;50681;53.334;-6.536;2023-09-19T04:27:11;98713.63;;;20.28;100.00
64354;BME280;50681;53.334;-6.536;2023-09-19T04:29:39;98720.59;;;20.40;100.00
64354;BME280;50681;53.334;-6.536;2023-09-19T04:32:06;98722.53;;;20.47;100.00
64354;BME280;50681;53.334;-6.536;2023-09-19T04:34:35;98717.47;;;20.41;100.00
64354;BME280;50681;53.334;-6.536;2023-09-19T04:37:00;98710.84;;;20.35;100.00
64354;BME280;50681;53.334;-6.536;2023-09-19T04:39:27;98700.84;;;20.67;100.00
64354;BME280;50681;53.334;-6.536;2023-09-19T04:41:53;98698.47;;;20.73;100.00
64354;BME280;50681;53.334;-6.536;2023-09-19T04:44:18;98696.16;;;20.67;100.00
64354;BME280;50681;53.334;-6.536;2023-09-19T04:46:44;98692.97;;;20.80;100.00
64354;BME280;50681;53.334;-6.536;2023-09-19T04:49:11;98682.75;;;20.77;100.00
64354;BME280;50681;53.334;-6.536;2023-09-19T04:51:37;98684.75;;;20.73;100.00
64354;BME280;50681;53.334;-6.536;2023-09-19T04:54:03;98683.13;;;20.82;100.00
64354;BME280;50681;53.334;-6.536;2023-09-19T04:56:29;98680.38;;;20.86;100.00
64354;BME280;50681;53.334;-6.536;2023-09-19T04:58:55;98675.09;;;20.53;100.00
64354;BME280;50681;53.334;-6.536;2023-09-19T05:01:20;98675.59;;;20.94;100.00
64354;BME280;50681;53.334;-6.536;2023-09-19T05:03:47;98676.88;;;20.82;100.00
64354;BME280;50681;53.334;-6.536;2023-09-19T05:06:17;98669.66;;;20.99;100.00
64354;BME280;50681;53.334;-6.536;2023-09-19T05:08:43;98663.34;;;21.02;100.00
64354;BME280;50681;53.334;-6.536;2023-09-19T05:11:08;98671.50;;;21.13;100.00
64354;BME280;50681;53.334;-6.536;2023-09-19T05:13:34;98662.16;;;21.07;100.00
64354;BME280;50681;53.334;-6.536;2023-09-19T05:16:00;98669.75;;;21.30;100.00
64354;BME280;50681;53.334;-6.536;2023-09-19T05:18:27;98659.59;;;21.27;100.00
64354;BME280;50681;53.334;-6.536;2023-09-19T05:20:53;98651.06;;;21.18;100.00
64354;BME280;50681;53.334;-6.536;2023-09-19T05:23:19;98648.81;;;21.43;100.00
64354;BME280;50681;53.334;-6.536;2023-09-19T05:25:46;98653.22;;;21.34;100.00
64354;BME280;50681;53.334;-6.536;2023-09-19T05:28:11;98647.06;;;21.22;100.00
64354;BME280;50681;53.334;-6.536;2023-09-19T05:30:40;98645.78;;;21.34;100.00
64354;BME280;50681;53.334;-6.536;2023-09-19T05:33:08;98656.31;;;21.39;100.00
64354;BME280;50681;53.334;-6.536;2023-09-19T05:35:34;98638.16;;;21.49;100.00
64354;BME280;50681;53.334;-6.536;2023-09-19T05:38:02;98637.47;;;21.41;100.00
64354;BME280;50681;53.334;-6.536;2023-09-19T05:40:27;98638.50;;;21.51;100.00
64354;BME280;50681;53.334;-6.536;2023-09-19T05:42:53;98634.13;;;21.57;100.00
64354;BME280;50681;53.334;-6.536;2023-09-19T05:45:18;98630.78;;;21.77;100.00
64354;BME280;50681;53.334;-6.536;2023-09-19T05:47:48;98619.00;;;21.46;100.00
64354;BME280;50681;53.334;-6.536;2023-09-19T05:50:14;98626.47;;;21.41;100.00
64354;BME280;50681;53.334;-6.536;2023-09-19T05:52:41;98622.56;;;21.39;100.00
64354;BME280;50681;53.334;-6.536;2023-09-19T05:55:08;98626.63;;;21.62;100.00
64354;BME280;50681;53.334;-6.536;2023-09-19T05:57:37;98626.63;;;21.65;100.00
64354;BME280;50681;53.334;-6.536;2023-09-19T06:00:08;98631.09;;;21.48;100.00
64354;BME280;50681;53.334;-6.536;2023-09-19T06:02:36;98630.59;;;21.92;100.00
64354;BME280;50681;53.334;-6.536;2023-09-19T06:05:01;98629.56;;;22.09;100.00
64354;BME280;50681;53.334;-6.536;2023-09-19T06:07:27;98621.44;;;21.71;100.00
64354;BME280;50681;53.334;-6.536;2023-09-19T06:10:01;98619.41;;;21.75;100.00
64354;BME280;50681;53.334;-6.536;2023-09-19T06:12:27;98629.56;;;22.09;100.00
64354;BME280;50681;53.334;-6.536;2023-09-19T06:14:53;98624.34;;;21.87;100.00
64354;BME280;50681;53.334;-6.536;2023-09-19T06:17:19;98623.34;;;22.05;100.00
64354;BME280;50681;53.334;-6.536;2023-09-19T06:19:45;98631.69;;;21.98;100.00
64354;BME280;50681;53.334;-6.536;2023-09-19T06:22:15;98621.50;;;22.73;100.00
64354;BME280;50681;53.334;-6.536;2023-09-19T06:24:44;98627.94;;;21.84;100.00
64354;BME280;50681;53.334;-6.536;2023-09-19T06:27:09;98615.97;;;21.98;100.00
64354;BME280;50681;53.334;-6.536;2023-09-19T06:29:35;98625.56;;;22.14;100.00
64354;BME280;50681;53.334;-6.536;2023-09-19T06:32:06;98624.94;;;22.02;100.00
64354;BME280;50681;53.334;-6.536;2023-09-19T06:34:32;98619.28;;;21.86;100.00
64354;BME280;50681;53.334;-6.536;2023-09-19T06:36:58;98633.28;;;22.23;100.00
64354;BME280;50681;53.334;-6.536;2023-09-19T06:39:23;98628.72;;;22.12;100.00
64354;BME280;50681;53.334;-6.536;2023-09-19T06:41:51;98636.22;;;21.81;100.00
64354;BME280;50681;53.334;-6.536;2023-09-19T06:44:18;98635.59;;;22.00;100.00
64354;BME280;50681;53.334;-6.536;2023-09-19T06:46:46;98633.75;;;21.90;100.00
64354;BME280;50681;53.334;-6.536;2023-09-19T06:49:19;98634.94;;;22.16;100.00
64354;BME280;50681;53.334;-6.536;2023-09-19T06:51:44;98649.88;;;22.15;100.00
64354;BME280;50681;53.334;-6.536;2023-09-19T06:54:10;98654.03;;;22.27;100.00
64354;BME280;50681;53.334;-6.536;2023-09-19T06:56:35;98659.22;;;22.22;100.00
64354;BME280;50681;53.334;-6.536;2023-09-19T06:59:01;98655.84;;;22.10;100.00
64354;BME280;50681;53.334;-6.536;2023-09-19T07:01:28;98656.31;;;22.05;100.00
64354;BME280;50681;53.334;-6.536;2023-09-19T07:03:53;98659.44;;;22.35;100.00
64354;BME280;50681;53.334;-6.536;2023-09-19T07:06:19;98660.47;;;22.72;100.00
64354;BME280;50681;53.334;-6.536;2023-09-19T07:08:45;98666.72;;;22.49;100.00
64354;BME280;50681;53.334;-6.536;2023-09-19T07:11:10;98666.41;;;22.39;100.00
64354;BME280;50681;53.334;-6.536;2023-09-19T07:13:37;98666.47;;;22.63;100.00
64354;BME280;50681;53.334;-6.536;2023-09-19T07:16:03;98673.75;;;22.50;100.00
64354;BME280;50681;53.334;-6.536;2023-09-19T07:18:29;98682.41;;;22.75;100.00
64354;BME280;50681;53.334;-6.536;2023-09-19T07:20:57;98671.22;;;23.10;100.00
64354;BME280;50681;53.334;-6.536;2023-09-19T07:23:26;98677.31;;;22.74;100.00
64354;BME280;50681;53.334;-6.536;2023-09-19T07:25:56;98691.84;;;22.98;100.00
64354;BME280;50681;53.334;-6.536;2023-09-19T07:28:22;98699.38;;;22.70;100.00
64354;BME280;50681;53.334;-6.536;2023-09-19T07:30:48;98689.22;;;22.67;100.00
64354;BME280;50681;53.334;-6.536;2023-09-19T07:33:13;98688.84;;;22.65;100.00
64354;BME280;50681;53.334;-6.536;2023-09-19T07:35:39;98696.50;;;23.01;100.00
64354;BME280;50681;53.334;-6.536;2023-09-19T07:38:07;98703.56;;;23.02;100.00
64354;BME280;50681;53.334;-6.536;2023-09-19T07:40:33;98694.66;;;23.18;100.00
64354;BME280;50681;53.334;-6.536;2023-09-19T07:42:58;98720.16;;;23.23;100.00
64354;BME280;50681;53.334;-6.536;2023-09-19T07:45:29;98709.88;;;23.47;100.00
64354;BME280;50681;53.334;-6.536;2023-09-19T07:47:55;98706.06;;;23.41;100.00
64354;BME280;50681;53.334;-6.536;2023-09-19T07:50:21;98706.16;;;23.37;100.00
64354;BME280;50681;53.334;-6.536;2023-09-19T07:52:48;98711.44;;;23.88;100.00
64354;BME280;50681;53.334;-6.536;2023-09-19T07:55:14;98710.81;;;23.60;100.00
64354;BME280;50681;53.334;-6.536;2023-09-19T07:57:44;98720.53;;;23.25;100.00
64354;BME280;50681;53.334;-6.536;2023-09-19T08:00:11;98723.97;;;23.73;100.00
64354;BME280;50681;53.334;-6.536;2023-09-19T08:02:37;98720.22;;;23.63;100.00
64354;BME280;50681;53.334;-6.536;2023-09-19T08:05:14;98715.75;;;24.10;100.00
64354;BME280;50681;53.334;-6.536;2023-09-19T08:07:44;98715.16;;;23.82;100.00
64354;BME280;50681;53.334;-6.536;2023-09-19T08:10:17;98707.97;;;23.44;100.00
64354;BME280;50681;53.334;-6.536;2023-09-19T08:12:46;98716.91;;;23.72;100.00
64354;BME280;50681;53.334;-6.536;2023-09-19T08:15:16;98711.44;;;23.88;100.00
64354;BME280;50681;53.334;-6.536;2023-09-19T08:17:42;98717.25;;;23.54;100.00
64354;BME280;50681;53.334;-6.536;2023-09-19T08:20:09;98713.84;;;23.86;100.00
64354;BME280;50681;53.334;-6.536;2023-09-19T08:22:44;98719.28;;;23.70;100.00
64354;BME280;50681;53.334;-6.536;2023-09-19T08:25:13;98720.63;;;23.61;100.00
64354;BME280;50681;53.334;-6.536;2023-09-19T08:27:38;98722.63;;;23.81;100.00
64354;BME280;50681;53.334;-6.536;2023-09-19T08:30:04;98714.03;;;24.16;100.00
64354;BME280;50681;53.334;-6.536;2023-09-19T08:32:31;98712.44;;;24.18;100.00
64354;BME280;50681;53.334;-6.536;2023-09-19T08:34:57;98722.75;;;23.94;100.00
64354;BME280;50681;53.334;-6.536;2023-09-19T08:37:22;98714.19;;;24.45;100.00
64354;BME280;50681;53.334;-6.536;2023-09-19T08:39:47;98704.25;;;24.31;100.00
64354;BME280;50681;53.334;-6.536;2023-09-19T08:42:13;98717.75;;;24.09;100.00
64354;BME280;50681;53.334;-6.536;2023-09-19T08:44:38;98723.31;;;24.05;100.00
64354;BME280;50681;53.334;-6.536;2023-09-19T08:47:15;98717.91;;;24.55;100.00
64354;BME280;50681;53.334;-6.536;2023-09-19T08:52:37;98716.94;;;24.29;100.00
64354;BME280;50681;53.334;-6.536;2023-09-19T08:55:06;98722.91;;;23.67;100.00
64354;BME280;50681;53.334;-6.536;2023-09-19T08:57:36;98730.25;;;23.93;100.00
64354;BME280;50681;53.334;-6.536;2023-09-19T09:00:05;98731.09;;;23.90;100.00
64354;BME280;50681;53.334;-6.536;2023-09-19T09:02:40;98727.56;;;24.10;100.00
64354;BME280;50681;53.334;-6.536;2023-09-19T09:05:10;98737.03;;;24.09;100.00
64354;BME280;50681;53.334;-6.536;2023-09-19T09:07:37;98737.81;;;23.25;100.00
64354;BME280;50681;53.334;-6.536;2023-09-19T09:10:04;98747.91;;;24.16;100.00
64354;BME280;50681;53.334;-6.536;2023-09-19T09:12:30;98746.97;;;24.23;100.00
64354;BME280;50681;53.334;-6.536;2023-09-19T09:14:55;98752.28;;;23.93;100.00
64354;BME280;50681;53.334;-6.536;2023-09-19T09:17:22;98746.44;;;23.91;100.00
64354;BME280;50681;53.334;-6.536;2023-09-19T09:19:48;98743.22;;;23.93;100.00
64354;BME280;50681;53.334;-6.536;2023-09-19T09:22:14;98746.44;;;23.71;100.00
64354;BME280;50681;53.334;-6.536;2023-09-19T09:27:19;98753.69;;;24.22;100.00
64354;BME280;50681;53.334;-6.536;2023-09-19T09:29:47;98756.38;;;24.26;100.00
64354;BME280;50681;53.334;-6.536;2023-09-19T09:34:49;98754.44;;;24.06;100.00
64354;BME280;50681;53.334;-6.536;2023-09-19T09:37:16;98750.63;;;24.73;100.00
64354;BME280;50681;53.334;-6.536;2023-09-19T09:39:58;98738.88;;;24.52;100.00
64354;BME280;50681;53.334;-6.536;2023-09-19T09:42:34;98747.50;;;24.71;100.00
64354;BME280;50681;53.334;-6.536;2023-09-19T09:45:14;98738.63;;;24.97;100.00
64354;BME280;50681;53.334;-6.536;2023-09-19T09:47:47;98748.03;;;25.16;100.00
64354;BME280;50681;53.334;-6.536;2023-09-19T09:52:57;98746.31;;;25.05;100.00
64354;BME280;50681;53.334;-6.536;2023-09-19T09:58:24;98739.91;;;24.59;100.00
64354;BME280;50681;53.334;-6.536;2023-09-19T10:00:55;98747.19;;;25.19;100.00
64354;BME280;50681;53.334;-6.536;2023-09-19T10:03:31;98743.41;;;24.96;100.00
64354;BME280;50681;53.334;-6.536;2023-09-19T10:05:58;98751.22;;;24.81;100.00
64354;BME280;50681;53.334;-6.536;2023-09-19T10:08:23;98746.50;;;25.15;100.00
64354;BME280;50681;53.334;-6.536;2023-09-19T10:10:50;98740.06;;;24.51;100.00
64354;BME280;50681;53.334;-6.536;2023-09-19T10:13:20;98744.06;;;24.67;100.00
64354;BME280;50681;53.334;-6.536;2023-09-19T10:15:51;98749.13;;;24.69;100.00
64354;BME280;50681;53.334;-6.536;2023-09-19T10:18:23;98754.44;;;24.96;100.00
64354;BME280;50681;53.334;-6.536;2023-09-19T10:20:50;98739.41;;;25.14;100.00
64354;BME280;50681;53.334;-6.536;2023-09-19T10:23:20;98761.47;;;25.76;100.00
64354;BME280;50681;53.334;-6.536;2023-09-19T10:25:49;98758.13;;;25.22;100.00
64354;BME280;50681;53.334;-6.536;2023-09-19T10:28:16;98758.63;;;25.17;100.00
64354;BME280;50681;53.334;-6.536;2023-09-19T10:30:50;98765.34;;;25.49;100.00
64354;BME280;50681;53.334;-6.536;2023-09-19T10:33:17;98764.72;;;25.88;100.00
64354;BME280;50681;53.334;-6.536;2023-09-19T10:35:48;98763.81;;;25.78;100.00
64354;BME280;50681;53.334;-6.536;2023-09-19T10:38:17;98766.81;;;25.54;100.00
64354;BME280;50681;53.334;-6.536;2023-09-19T10:40:44;98764.59;;;25.49;100.00
64354;BME280;50681;53.334;-6.536;2023-09-19T10:43:16;98776.56;;;25.88;100.00
64354;BME280;50681;53.334;-6.536;2023-09-19T10:45:45;98780.09;;;25.59;100.00
64354;BME280;50681;53.334;-6.536;2023-09-19T10:48:15;98782.97;;;25.22;100.00
64354;BME280;50681;53.334;-6.536;2023-09-19T10:50:48;98785.53;;;25.63;100.00
64354;BME280;50681;53.334;-6.536;2023-09-19T10:53:16;98789.38;;;25.03;100.00
64354;BME280;50681;53.334;-6.536;2023-09-19T10:55:50;98786.00;;;25.12;100.00
64354;BME280;50681;53.334;-6.536;2023-09-19T10:58:46;98775.19;;;25.34;100.00
64354;BME280;50681;53.334;-6.536;2023-09-19T11:01:12;98784.28;;;25.18;100.00
64354;BME280;50681;53.334;-6.536;2023-09-19T11:03:41;98775.66;;;24.99;100.00
64354;BME280;50681;53.334;-6.536;2023-09-19T11:06:14;98781.25;;;25.12;100.00
64354;BME280;50681;53.334;-6.536;2023-09-19T11:11:44;98771.88;;;25.09;100.00
64354;BME280;50681;53.334;-6.536;2023-09-19T11:30:32;98780.84;;;24.60;100.00
64354;BME280;50681;53.334;-6.536;2023-09-19T11:36:10;98791.59;;;25.41;100.00
64354;BME280;50681;53.334;-6.536;2023-09-19T11:46:26;98800.03;;;25.67;100.00
64354;BME280;50681;53.334;-6.536;2023-09-19T11:48:53;98806.44;;;25.64;100.00
64354;BME280;50681;53.334;-6.536;2023-09-19T11:51:23;98804.69;;;26.00;100.00
64354;BME280;50681;53.334;-6.536;2023-09-19T11:53:53;98812.69;;;25.81;100.00
64354;BME280;50681;53.334;-6.536;2023-09-19T11:56:24;98804.97;;;25.59;100.00
64354;BME280;50681;53.334;-6.536;2023-09-19T11:58:55;98795.75;;;26.38;100.00
64354;BME280;50681;53.334;-6.536;2023-09-19T12:01:30;98797.84;;;26.34;100.00
64354;BME280;50681;53.334;-6.536;2023-09-19T12:03:58;98785.88;;;26.50;100.00
64354;BME280;50681;53.334;-6.536;2023-09-19T12:06:28;98772.69;;;27.06;100.00
64354;BME280;50681;53.334;-6.536;2023-09-19T12:08:57;98763.19;;;26.68;100.00
64354;BME280;50681;53.334;-6.536;2023-09-19T12:11:30;98766.38;;;27.05;100.00
64354;BME280;50681;53.334;-6.536;2023-09-19T12:13:58;98772.38;;;26.65;100.00
64354;BME280;50681;53.334;-6.536;2023-09-19T12:16:26;98768.63;;;26.33;100.00
64354;BME280;50681;53.334;-6.536;2023-09-19T12:18:55;98776.13;;;26.32;100.00
64354;BME280;50681;53.334;-6.536;2023-09-19T12:24:11;98767.94;;;26.29;100.00
64354;BME280;50681;53.334;-6.536;2023-09-19T12:26:47;98769.81;;;25.89;100.00
64354;BME280;50681;53.334;-6.536;2023-09-19T12:29:22;98775.47;;;26.41;100.00
64354;BME280;50681;53.334;-6.536;2023-09-19T12:31:55;98776.69;;;26.53;100.00
64354;BME280;50681;53.334;-6.536;2023-09-19T12:34:27;98779.31;;;26.18;100.00
64354;BME280;50681;53.334;-6.536;2023-09-19T12:37:12;98785.69;;;26.02;100.00
64354;BME280;50681;53.334;-6.536;2023-09-19T12:39:41;98790.41;;;25.88;100.00
64354;BME280;50681;53.334;-6.536;2023-09-19T12:42:10;98790.41;;;26.01;100.00
64354;BME280;50681;53.334;-6.536;2023-09-19T12:44:44;98787.31;;;26.41;100.00
64354;BME280;50681;53.334;-6.536;2023-09-19T12:47:17;98783.22;;;26.20;100.00
64354;BME280;50681;53.334;-6.536;2023-09-19T12:52:41;98794.47;;;25.54;100.00
64354;BME280;50681;53.334;-6.536;2023-09-19T12:55:07;98803.75;;;25.90;100.00
64354;BME280;50681;53.334;-6.536;2023-09-19T12:57:34;98808.09;;;25.91;100.00
64354;BME280;50681;53.334;-6.536;2023-09-19T13:00:03;98800.38;;;25.98;100.00
64354;BME280;50681;53.334;-6.536;2023-09-19T13:02:31;98800.22;;;25.43;100.00
64354;BME280;50681;53.334;-6.536;2023-09-19T13:04:58;98804.75;;;25.83;100.00
64354;BME280;50681;53.334;-6.536;2023-09-19T13:07:45;98797.25;;;26.26;100.00
64354;BME280;50681;53.334;-6.536;2023-09-19T13:10:12;98807.81;;;26.02;100.00
64354;BME280;50681;53.334;-6.536;2023-09-19T13:12:41;98796.34;;;25.57;100.00
64354;BME280;50681;53.334;-6.536;2023-09-19T13:15:10;98808.34;;;25.96;100.00
64354;BME280;50681;53.334;-6.536;2023-09-19T13:17:48;98825.19;;;25.56;100.00
64354;BME280;50681;53.334;-6.536;2023-09-19T13:20:22;98803.72;;;25.77;100.00
64354;BME280;50681;53.334;-6.536;2023-09-19T13:22:55;98810.53;;;26.18;100.00
64354;BME280;50681;53.334;-6.536;2023-09-19T13:25:25;98810.53;;;26.31;100.00
64354;BME280;50681;53.334;-6.536;2023-09-19T13:27:54;98812.88;;;26.33;100.00
64354;BME280;50681;53.334;-6.536;2023-09-19T13:30:22;98811.69;;;25.75;100.00
64354;BME280;50681;53.334;-6.536;2023-09-19T13:32:48;98810.31;;;25.96;100.00
64354;BME280;50681;53.334;-6.536;2023-09-19T13:35:14;98807.78;;;26.31;100.00
64354;BME280;50681;53.334;-6.536;2023-09-19T13:37:41;98813.13;;;25.79;100.00
64354;BME280;50681;53.334;-6.536;2023-09-19T13:40:10;98808.47;;;26.74;100.00
64354;BME280;50681;53.334;-6.536;2023-09-19T13:42:37;98804.91;;;26.35;100.00
64354;BME280;50681;53.334;-6.536;2023-09-19T13:45:03;98797.94;;;27.21;100.00
64354;BME280;50681;53.334;-6.536;2023-09-19T13:47:30;98790.97;;;26.51;100.00
64354;BME280;50681;53.334;-6.536;2023-09-19T13:49:55;98805.25;;;26.76;100.00